METAR AND TAF INFORMATION
METAR FOR EHVK
ADDS - METARS form results

(2316 UTC 20 September 2020)
Data provider http://aviationweather.gov/metar/data/
 
METAR text: EHVK 202255Z AUTO 36004KT 9999 NCD 12/07 Q1017 BLU
Conditions at: EHVK (VOLKEL RNLAFB , NL) observed 2255 UTC 20 September 2020
Temperature: 12.0°C (54°F)
Dewpoint: 7.0°C (45°F) [RH = 71%]
Pressure (altimeter): 30.03 inches Hg (1017.0 mb)
Winds: from the N (360 degrees) at 5 MPH (4 knots; 2.1 m/s)
Visibility: 6 or more miles (10+ km)
Ceiling: at least 12,000 feet AGL
Clouds: sky clear below 12,000 feet AGL
Weather: no significant weather observed at this time

METAR text: EHVK 202225Z AUTO 36004KT 9999 NCD 11/07 Q1017 BLU
Conditions at: EHVK (VOLKEL RNLAFB , NL) observed 2225 UTC 20 September 2020
Temperature: 11.0°C (52°F)
Dewpoint: 7.0°C (45°F) [RH = 76%]
Pressure (altimeter): 30.03 inches Hg (1017.0 mb)
Winds: from the N (360 degrees) at 5 MPH (4 knots; 2.1 m/s)
Visibility: 6 or more miles (10+ km)
Ceiling: at least 12,000 feet AGL
Clouds: sky clear below 12,000 feet AGL
Weather: no significant weather observed at this time

Forecast for: COR
Text: TAF COR EHVK 202013Z 2021/2109 02008KT CAVOK
Forecast period: 2100 UTC 20 September 2020 to 0900 UTC 21 September 2020
Forecast type: FROM: standard forecast or significant change
Winds: from the NNE (20 degrees) at 9 MPH (8 knots; 4.1 m/s)
Visibility: 6 or more miles (10+ km)
Ceiling: unknown
Clouds: missing
Weather: NSW  (no significant weather)
Text: PROB30 2103/2105 4000 BR MIFG
Forecast period: 0300 to 0500 UTC 21 September 2020
Forecast type: PROBABLE: 30 percent likelihood of the following during this time
Visibility: 2.49 miles (4.01 km)
Ceiling: unknown
Clouds: missing
Weather: BR MIFG  (mist, shallow fog)

 AIRPORT MAP

 RUNWAY INFORMATION
Runway 06L Runway length 9922 ft Runway width 148 ft
Runway elevation 71 ft Runway displaced threshold 444 ft Runway heading 58
Runway 24R Runway length 9922 ft Runway width 148 ft
Runway elevation 64 ft Runway displaced threshold 444 ft Runway heading 238
Runway 06R Runway length 9931 ft Runway width 74 ft
Runway elevation 72 ft Runway displaced threshold 446 ft Runway heading 58
Runway 24L Runway length 9931 ft Runway width 74 ft
Runway elevation 65 ft Runway displaced threshold 446 ft Runway heading 238

 AIRPORT FREQUENCIES
Type APP Name RAPCON SOU Frequency 123.175 MHZ
Type GND Name GND Frequency 38.677 MHZ
Type TWR Name TWR Frequency 133.425 MHZ

 AIRPORT NEAR NAVIGATION AIDS
Type TACAN Name Volkel Frequency 108300 KHZ